createdAt,value
2017-08-15T00:00:01.372Z,14.53
2017-08-15T00:01:01.023Z,14.51
2017-08-15T00:02:01.385Z,14.59
2017-08-15T00:03:01.342Z,14.59
2017-08-15T00:04:01.333Z,14.57
2017-08-15T00:05:00.686Z,14.6
2017-08-15T00:06:01.326Z,14.59
2017-08-15T00:07:01.319Z,14.64
2017-08-15T00:08:01.308Z,14.63
2017-08-15T00:09:00.979Z,14.57
2017-08-15T00:10:01.321Z,14.67
2017-08-15T00:11:00.991Z,14.67
2017-08-15T00:12:01.296Z,14.63
2017-08-15T00:13:00.980Z,14.63
2017-08-15T00:14:00.958Z,14.63
2017-08-15T00:15:00.987Z,14.67
2017-08-15T00:16:00.947Z,14.64
2017-08-15T00:17:01.263Z,14.66
2017-08-15T00:18:01.276Z,14.69
2017-08-15T00:19:01.333Z,14.61
2017-08-15T00:20:01.032Z,14.64
2017-08-15T00:21:01.258Z,14.59
2017-08-15T00:22:01.317Z,14.59
2017-08-15T00:23:00.949Z,14.63
2017-08-15T00:24:00.953Z,14.59
2017-08-15T00:25:00.942Z,14.6
2017-08-15T00:26:01.212Z,14.66
2017-08-15T00:27:01.214Z,14.63
2017-08-15T00:28:01.215Z,14.64
2017-08-15T00:29:01.213Z,14.66
2017-08-15T00:30:00.553Z,14.67
2017-08-15T00:31:01.210Z,14.63
2017-08-15T00:32:00.862Z,14.69
2017-08-15T00:33:00.879Z,14.75
2017-08-15T00:34:00.533Z,14.67
2017-08-15T00:35:01.190Z,14.79
2017-08-15T00:36:01.179Z,14.85
2017-08-15T00:37:00.860Z,14.79
2017-08-15T00:38:01.165Z,14.85
2017-08-15T00:39:01.158Z,14.89
2017-08-15T00:40:01.145Z,14.79
2017-08-15T00:41:00.892Z,14.9
2017-08-15T00:42:01.139Z,14.9
2017-08-15T00:43:00.512Z,15.04
2017-08-15T00:44:00.803Z,14.98
2017-08-15T00:45:00.813Z,15
2017-08-15T00:46:01.117Z,14.98
2017-08-15T00:47:01.112Z,15.07
2017-08-15T00:48:00.784Z,15.07
2017-08-15T00:49:00.784Z,15.08
2017-08-15T00:50:00.467Z,15.05
2017-08-15T00:51:01.094Z,15.02
2017-08-15T00:52:00.761Z,15.01
2017-08-15T00:53:00.761Z,15.05
2017-08-15T00:54:01.078Z,15
2017-08-15T00:55:00.969Z,15.02
2017-08-15T00:56:00.742Z,15.04
2017-08-15T00:57:00.736Z,15
2017-08-15T00:58:01.091Z,15.05
2017-08-15T00:59:01.047Z,15
2017-08-15T01:00:01.046Z,15.02
2017-08-15T01:01:00.736Z,15
2017-08-15T01:02:00.717Z,15.02
2017-08-15T01:03:00.389Z,15.02
2017-08-15T01:04:01.039Z,15.04
2017-08-15T01:05:00.701Z,15.01
2017-08-15T01:06:00.389Z,14.97
2017-08-15T01:07:00.701Z,14.98
2017-08-15T01:08:01.020Z,14.94
2017-08-15T01:09:01.011Z,15.04
2017-08-15T01:10:01.012Z,14.89
2017-08-15T01:11:00.987Z,14.93
2017-08-15T01:12:00.670Z,14.94
2017-08-15T01:13:00.980Z,14.97
2017-08-15T01:14:00.971Z,14.87
2017-08-15T01:15:00.971Z,14.85
2017-08-15T01:16:00.972Z,14.82
2017-08-15T01:17:00.961Z,14.89
2017-08-15T01:18:00.973Z,14.83
2017-08-15T01:19:00.631Z,14.82
2017-08-15T01:20:00.949Z,14.85
2017-08-15T01:21:00.630Z,14.79
2017-08-15T01:22:00.989Z,14.85
2017-08-15T01:23:00.937Z,14.67
2017-08-15T01:24:00.939Z,14.67
2017-08-15T01:25:00.603Z,14.71
2017-08-15T01:26:00.915Z,14.69
2017-08-15T01:27:00.925Z,14.67
2017-08-15T01:28:00.603Z,14.71
2017-08-15T01:29:00.579Z,14.75
2017-08-15T01:30:00.571Z,14.7
2017-08-15T01:31:00.570Z,14.74
2017-08-15T01:32:00.579Z,14.61
2017-08-15T01:33:00.557Z,14.7
2017-08-15T01:34:00.876Z,14.64
2017-08-15T01:35:00.557Z,14.63
2017-08-15T01:36:00.568Z,14.63
2017-08-15T01:37:00.862Z,14.63
2017-08-15T01:38:00.535Z,14.67
2017-08-15T01:39:00.885Z,14.66
2017-08-15T01:40:00.889Z,14.66
2017-08-15T01:41:00.835Z,14.69
2017-08-15T01:42:00.510Z,14.66
2017-08-15T01:43:00.828Z,14.7
2017-08-15T01:44:00.822Z,14.67
2017-08-15T01:45:00.830Z,14.7
2017-08-15T01:46:00.816Z,14.69
2017-08-15T01:47:00.167Z,14.74
2017-08-15T01:48:00.798Z,14.7
2017-08-15T01:49:00.809Z,14.79
2017-08-15T01:50:00.790Z,14.71
2017-08-15T01:51:00.473Z,14.63
2017-08-15T01:52:00.468Z,14.71
2017-08-15T01:53:00.454Z,14.66
2017-08-15T01:54:00.790Z,14.66
2017-08-15T01:55:00.138Z,14.66
2017-08-15T01:56:00.436Z,14.66
2017-08-15T01:57:00.434Z,14.59
2017-08-15T01:58:00.752Z,14.63
2017-08-15T01:59:00.427Z,14.64
2017-08-15T02:00:00.417Z,14.66
2017-08-15T02:01:00.422Z,14.77
2017-08-15T02:02:00.434Z,14.75
2017-08-15T02:03:00.725Z,14.69
2017-08-15T02:04:00.402Z,14.7
2017-08-15T02:05:00.714Z,14.69
2017-08-15T02:06:00.407Z,14.69
2017-08-15T02:07:00.700Z,14.7
2017-08-15T02:08:00.698Z,14.67
2017-08-15T02:09:00.370Z,14.66
2017-08-15T02:10:00.390Z,14.61
2017-08-15T02:11:00.702Z,14.63
2017-08-15T02:12:00.368Z,14.61
2017-08-15T02:13:00.681Z,14.7
2017-08-15T02:14:00.662Z,14.6
2017-08-15T02:15:00.021Z,14.63
2017-08-15T02:16:00.666Z,14.49
2017-08-15T02:17:00.650Z,14.49
2017-08-15T02:18:00.658Z,14.6
2017-08-15T02:19:00.658Z,14.6
2017-08-15T02:20:00.325Z,14.56
2017-08-15T02:21:00.308Z,14.61
2017-08-15T02:22:00.640Z,14.6
2017-08-15T02:23:00.629Z,14.46
2017-08-15T02:24:00.617Z,14.57
2017-08-15T02:25:00.631Z,14.51
2017-08-15T02:25:59.961Z,14.48
2017-08-15T02:27:00.277Z,14.52
2017-08-15T02:28:00.632Z,14.44
2017-08-15T02:29:00.591Z,14.48
2017-08-15T02:30:00.602Z,14.53
2017-08-15T02:31:00.581Z,14.53
2017-08-15T02:32:00.254Z,14.48
2017-08-15T02:33:00.586Z,14.49
2017-08-15T02:34:00.241Z,14.57
2017-08-15T02:35:00.557Z,14.6
2017-08-15T02:36:00.231Z,14.64
2017-08-15T02:37:00.250Z,14.63
2017-08-15T02:38:00.236Z,14.7
2017-08-15T02:39:00.235Z,14.66
2017-08-15T02:40:00.212Z,14.66
2017-08-15T02:41:00.532Z,14.66
2017-08-15T02:42:00.551Z,14.71
2017-08-15T02:43:00.218Z,14.66
2017-08-15T02:44:00.735Z,14.49
2017-08-15T02:45:00.198Z,14.53
2017-08-15T02:46:00.506Z,14.53
2017-08-15T02:47:00.496Z,14.45
2017-08-15T02:48:00.170Z,14.46
2017-08-15T02:49:00.194Z,14.49
2017-08-15T02:50:00.495Z,14.52
2017-08-15T02:51:00.479Z,14.53
2017-08-15T02:52:00.514Z,14.56
2017-08-15T02:52:59.825Z,14.46
2017-08-15T02:54:00.174Z,14.51
2017-08-15T02:55:00.453Z,14.49
2017-08-15T02:56:00.450Z,14.51
2017-08-15T02:57:00.455Z,14.57
2017-08-15T02:58:00.434Z,14.57
2017-08-15T02:59:00.445Z,14.59
2017-08-15T03:00:00.440Z,14.63
2017-08-15T03:01:00.107Z,14.64
2017-08-15T03:02:00.420Z,14.75
2017-08-15T03:03:00.087Z,14.7
2017-08-15T03:04:00.090Z,14.67
2017-08-15T03:05:00.095Z,14.69
2017-08-15T03:06:00.091Z,14.71
2017-08-15T03:07:00.066Z,14.71
2017-08-15T03:08:00.384Z,14.87
2017-08-15T03:09:00.062Z,14.82
2017-08-15T03:10:00.377Z,14.82
2017-08-15T03:11:00.373Z,14.82
2017-08-15T03:12:00.379Z,14.85
2017-08-15T03:13:00.371Z,14.85
2017-08-15T03:13:59.756Z,14.83
2017-08-15T03:15:00.381Z,14.86
2017-08-15T03:16:00.340Z,14.89
2017-08-15T03:17:00.339Z,14.87
2017-08-15T03:18:00.356Z,14.85
2017-08-15T03:19:00.008Z,14.82
2017-08-15T03:20:00.342Z,14.87
2017-08-15T03:21:00.316Z,14.79
2017-08-15T03:22:00.310Z,14.67
2017-08-15T03:23:00.005Z,14.69
2017-08-15T03:24:00.316Z,14.71
2017-08-15T03:24:59.654Z,14.7
2017-08-15T03:26:00.304Z,14.74
2017-08-15T03:27:00.284Z,14.79
2017-08-15T03:28:00.277Z,14.8
2017-08-15T03:29:00.274Z,14.9
2017-08-15T03:29:59.947Z,14.93
2017-08-15T03:30:59.951Z,14.86
2017-08-15T03:31:59.952Z,14.93
2017-08-15T03:33:00.266Z,14.86
2017-08-15T03:33:59.960Z,15.02
2017-08-15T03:35:00.254Z,15
2017-08-15T03:36:00.238Z,15.02
2017-08-15T03:37:00.232Z,15
2017-08-15T03:37:59.908Z,14.97
2017-08-15T03:39:00.223Z,15.02
2017-08-15T03:39:59.577Z,15
2017-08-15T03:40:59.570Z,14.89
2017-08-15T03:42:00.213Z,15
2017-08-15T03:42:59.561Z,15.01
2017-08-15T03:43:59.555Z,14.94
2017-08-15T03:45:00.222Z,14.94
2017-08-15T03:45:59.576Z,14.95
2017-08-15T03:47:00.180Z,14.9
2017-08-15T03:47:59.852Z,14.98
2017-08-15T03:49:00.173Z,14.94
2017-08-15T03:50:00.176Z,14.95
2017-08-15T03:50:59.844Z,15.08
2017-08-15T03:52:00.157Z,15.05
2017-08-15T03:53:00.171Z,15.04
2017-08-15T03:53:59.830Z,15.15
2017-08-15T03:54:59.847Z,15.12
2017-08-15T03:56:00.137Z,15.27
2017-08-15T03:57:00.128Z,15.25
2017-08-15T03:57:59.802Z,15.34
2017-08-15T03:59:00.130Z,15.33
2017-08-15T04:00:00.129Z,15.38
2017-08-15T04:01:00.117Z,15.43
2017-08-15T04:01:59.789Z,15.44
2017-08-15T04:02:59.784Z,15.55
2017-08-15T04:03:59.774Z,15.59
2017-08-15T04:04:59.449Z,15.7
2017-08-15T04:06:00.142Z,15.73
2017-08-15T04:07:00.084Z,15.84
2017-08-15T04:08:00.074Z,15.86
2017-08-15T04:09:00.087Z,15.89
2017-08-15T04:09:59.750Z,16.04
2017-08-15T04:11:00.074Z,16.07
2017-08-15T04:12:00.060Z,16.04
2017-08-15T04:12:59.733Z,16.22
2017-08-15T04:14:00.046Z,16.21
2017-08-15T04:14:59.724Z,16.29
2017-08-15T04:15:59.718Z,16.3
2017-08-15T04:17:00.035Z,16.26
2017-08-15T04:17:59.710Z,16.29
2017-08-15T04:18:59.703Z,16.27
2017-08-15T04:19:59.710Z,16.32
2017-08-15T04:21:00.040Z,16.3
2017-08-15T04:21:59.437Z,16.27
2017-08-15T04:23:00.032Z,16.32
2017-08-15T04:23:59.684Z,16.34
2017-08-15T04:24:59.698Z,16.44
2017-08-15T04:25:59.994Z,16.52
2017-08-15T04:26:59.673Z,16.47
2017-08-15T04:27:59.371Z,16.45
2017-08-15T04:28:59.697Z,16.45
2017-08-15T04:29:59.977Z,16.51
2017-08-15T04:30:59.970Z,16.59
2017-08-15T04:31:59.665Z,16.55
2017-08-15T04:32:59.662Z,16.58
2017-08-15T04:33:59.971Z,16.59
2017-08-15T04:35:00.080Z,16.57
2017-08-15T04:35:59.951Z,16.62
2017-08-15T04:36:59.959Z,16.66
2017-08-15T04:37:59.943Z,16.65
2017-08-15T04:38:59.301Z,16.65
2017-08-15T04:39:59.968Z,16.69
2017-08-15T04:40:59.607Z,16.72
2017-08-15T04:41:59.614Z,16.74
2017-08-15T04:42:59.922Z,16.73
2017-08-15T04:43:59.595Z,16.84
2017-08-15T04:44:59.594Z,16.84
2017-08-15T04:45:59.934Z,16.9
2017-08-15T04:46:59.929Z,16.94
2017-08-15T04:47:59.588Z,16.85
2017-08-15T04:48:59.588Z,16.99
2017-08-15T04:49:59.616Z,16.91
2017-08-15T04:50:59.898Z,16.99
2017-08-15T04:51:59.890Z,16.92
2017-08-15T04:52:59.881Z,16.92
2017-08-15T04:53:59.573Z,16.99
2017-08-15T04:54:59.877Z,17.06
2017-08-15T04:55:59.548Z,17.12
2017-08-15T04:56:59.879Z,17.1
2017-08-15T04:57:59.556Z,17.07
2017-08-15T04:58:59.857Z,17.06
2017-08-15T04:59:59.871Z,17.05
2017-08-15T05:00:59.547Z,17.13
2017-08-15T05:01:59.525Z,17.15
2017-08-15T05:02:59.867Z,17.17
2017-08-15T05:03:59.849Z,17.27
2017-08-15T05:04:59.881Z,17.4
2017-08-15T05:05:59.855Z,17.32
2017-08-15T05:06:59.525Z,17.47
2017-08-15T05:07:59.823Z,17.54
2017-08-15T05:08:59.829Z,17.6
2017-08-15T05:09:59.500Z,17.58
2017-08-15T05:10:59.495Z,17.65
2017-08-15T05:11:59.493Z,17.63
2017-08-15T05:12:59.837Z,17.68
2017-08-15T05:13:59.806Z,17.69
2017-08-15T05:14:59.848Z,17.69
2017-08-15T05:15:59.158Z,17.71
2017-08-15T05:16:59.495Z,17.68
2017-08-15T05:17:59.489Z,17.68
2017-08-15T05:18:59.819Z,17.73
2017-08-15T05:19:59.787Z,17.73
2017-08-15T05:20:59.466Z,17.8
2017-08-15T05:21:59.803Z,17.79
2017-08-15T05:22:59.782Z,17.87
2017-08-15T05:23:59.803Z,17.87
2017-08-15T05:24:59.776Z,17.98
2017-08-15T05:25:59.462Z,17.94
2017-08-15T05:26:59.444Z,18.02
2017-08-15T05:27:59.761Z,18.02
2017-08-15T05:28:59.766Z,18.06
2017-08-15T05:29:59.761Z,18.16
2017-08-15T05:30:59.458Z,18.11
2017-08-15T05:31:59.439Z,18.06
2017-08-15T05:32:59.761Z,18.17
2017-08-15T05:33:59.771Z,18.2
2017-08-15T05:34:59.446Z,18.17
2017-08-15T05:35:59.763Z,18.06
2017-08-15T05:36:59.427Z,18.06
2017-08-15T05:37:59.730Z,18.05
2017-08-15T05:38:59.432Z,18.01
2017-08-15T05:39:59.731Z,18.17
2017-08-15T05:40:59.727Z,18.14
2017-08-15T05:41:59.410Z,18.17
2017-08-15T05:42:59.401Z,18.32
2017-08-15T05:43:59.397Z,18.31
2017-08-15T05:44:59.717Z,18.35
2017-08-15T05:45:59.079Z,18.42
2017-08-15T05:46:59.709Z,18.54
2017-08-15T05:47:59.391Z,18.65
2017-08-15T05:48:59.748Z,18.6
2017-08-15T05:49:59.383Z,18.69
2017-08-15T05:50:59.702Z,18.65
2017-08-15T05:51:59.389Z,18.84
2017-08-15T05:52:59.706Z,18.79
2017-08-15T05:53:59.692Z,18.91
2017-08-15T05:54:59.369Z,18.97
2017-08-15T05:55:59.379Z,18.96
2017-08-15T05:56:59.685Z,18.99
2017-08-15T05:57:59.688Z,18.91
2017-08-15T05:58:59.678Z,18.97
2017-08-15T05:59:59.682Z,18.97
2017-08-15T06:00:59.717Z,19.07
2017-08-15T06:01:59.673Z,18.97
2017-08-15T06:02:59.683Z,18.97
2017-08-15T06:03:59.377Z,18.97
2017-08-15T06:04:59.351Z,19.06
2017-08-15T06:05:59.343Z,19.05
2017-08-15T06:06:59.661Z,19
2017-08-15T06:07:59.661Z,19
2017-08-15T06:08:59.663Z,19
2017-08-15T06:09:59.680Z,18.97
2017-08-15T06:10:59.659Z,19
2017-08-15T06:11:59.679Z,19.05
2017-08-15T06:12:59.687Z,18.94
2017-08-15T06:13:59.037Z,19.13
2017-08-15T06:14:59.651Z,19.06
2017-08-15T06:15:59.664Z,19.09
2017-08-15T06:16:59.639Z,19.07
2017-08-15T06:17:59.348Z,19
2017-08-15T06:18:59.640Z,18.94
2017-08-15T06:19:59.641Z,19.02
2017-08-15T06:20:59.665Z,18.86
2017-08-15T06:21:59.631Z,18.9
2017-08-15T06:22:59.307Z,18.89
2017-08-15T06:23:59.328Z,18.89
2017-08-15T06:24:59.305Z,18.9
2017-08-15T06:25:59.637Z,18.87
2017-08-15T06:26:59.306Z,18.94
2017-08-15T06:27:59.300Z,19
2017-08-15T06:28:59.617Z,18.93
2017-08-15T06:29:59.643Z,18.97
2017-08-15T06:30:59.318Z,19.07
2017-08-15T06:31:59.637Z,18.99
2017-08-15T06:32:59.610Z,19.05
2017-08-15T06:33:58.975Z,19.02
2017-08-15T06:34:59.612Z,18.96
2017-08-15T06:35:59.607Z,19.1
2017-08-15T06:36:59.627Z,19.06
2017-08-15T06:37:59.630Z,19.19
2017-08-15T06:38:59.601Z,19.16
2017-08-15T06:39:58.975Z,19.25
2017-08-15T06:40:59.613Z,19.23
2017-08-15T06:41:59.613Z,19.24
2017-08-15T06:42:59.271Z,19.34
2017-08-15T06:43:59.604Z,19.4
2017-08-15T06:44:58.959Z,19.42
2017-08-15T06:45:59.618Z,19.52
2017-08-15T06:46:59.269Z,19.53
2017-08-15T06:47:59.265Z,19.52
2017-08-15T06:48:59.593Z,19.68
2017-08-15T06:49:59.261Z,19.79
2017-08-15T06:50:59.259Z,19.97
2017-08-15T06:51:59.576Z,20.12
2017-08-15T06:52:58.934Z,20.38
2017-08-15T06:53:59.578Z,20.58
2017-08-15T06:54:59.572Z,20.76
2017-08-15T06:55:59.572Z,21.19
2017-08-15T06:56:59.266Z,21.58
2017-08-15T06:57:59.583Z,22.08
2017-08-15T06:58:59.603Z,22.39
2017-08-15T06:59:59.251Z,22.84
2017-08-15T07:00:59.570Z,23.45
2017-08-15T07:01:59.249Z,23.93
2017-08-15T07:02:59.263Z,24.44
2017-08-15T07:03:59.578Z,25.02
2017-08-15T07:04:59.569Z,25.57
2017-08-15T07:05:59.588Z,26.24
2017-08-15T07:06:59.273Z,26.61
2017-08-15T07:07:59.251Z,26.94
2017-08-15T07:08:59.257Z,27.34
2017-08-15T07:09:59.593Z,27.68
2017-08-15T07:10:59.577Z,27.96
2017-08-15T07:11:59.303Z,28.35
2017-08-15T07:12:59.262Z,28.55
2017-08-15T07:13:59.264Z,28.95
2017-08-15T07:14:59.272Z,29.03
2017-08-15T07:15:59.284Z,29.11
2017-08-15T07:16:59.297Z,29.26
2017-08-15T07:17:59.288Z,29.36
2017-08-15T07:18:59.301Z,29.39
2017-08-15T07:19:59.623Z,29.4
2017-08-15T07:20:58.987Z,29.35
2017-08-15T07:21:59.302Z,29.38
2017-08-15T07:22:59.708Z,29.51
2017-08-15T07:23:59.622Z,29.57
2017-08-15T07:24:59.637Z,29.63
2017-08-15T07:25:58.991Z,29.61
2017-08-15T07:26:59.651Z,29.63
2017-08-15T07:27:59.347Z,29.45
2017-08-15T07:28:59.325Z,29.61
2017-08-15T07:29:59.028Z,29.76
2017-08-15T07:30:59.667Z,30.04
2017-08-15T07:31:59.352Z,30.44
2017-08-15T07:32:59.350Z,30.49
2017-08-15T07:33:59.399Z,30.47
2017-08-15T07:34:59.701Z,30.26
2017-08-15T07:35:59.680Z,30.18
2017-08-15T07:36:59.690Z,30.22
2017-08-15T07:37:59.378Z,30.35
2017-08-15T07:38:59.706Z,30.44
2017-08-15T07:39:59.400Z,30.56
2017-08-15T07:40:59.728Z,30.29
2017-08-15T07:41:59.722Z,30.24
2017-08-15T07:42:59.719Z,29.89
2017-08-15T07:43:59.753Z,29.67
2017-08-15T07:44:59.840Z,29.6
2017-08-15T07:45:59.805Z,29.57
2017-08-15T07:46:59.463Z,29.66
2017-08-15T07:47:59.511Z,29.72
2017-08-15T07:48:59.563Z,29.4
2017-08-15T07:49:59.527Z,29.05
2017-08-15T07:51:00.158Z,28.85
2017-08-15T07:51:59.905Z,28.55
2017-08-15T07:53:00.508Z,28.41
2017-08-15T07:53:59.255Z,28.24
2017-08-15T07:54:59.514Z,27.9
2017-08-15T07:55:59.628Z,27.81
2017-08-15T07:56:59.527Z,27.52
2017-08-15T07:57:59.518Z,27.26
2017-08-15T07:58:59.889Z,27.04
2017-08-15T07:59:59.547Z,26.81
2017-08-15T08:00:59.957Z,26.75
2017-08-15T08:01:59.865Z,26.53
2017-08-15T08:02:59.887Z,26.32
2017-08-15T08:03:59.669Z,26.04
2017-08-15T08:04:59.521Z,25.89
2017-08-15T08:05:59.972Z,25.86
2017-08-15T08:06:59.944Z,25.76
2017-08-15T08:07:59.287Z,25.67
2017-08-15T08:08:59.986Z,25.66
2017-08-15T08:09:59.999Z,25.64
2017-08-15T08:10:59.578Z,25.54
2017-08-15T08:11:59.649Z,25.47
2017-08-15T08:12:59.993Z,25.45
2017-08-15T08:13:59.979Z,25.47
2017-08-15T08:15:00.184Z,25.34
2017-08-15T08:15:59.621Z,25.2
2017-08-15T08:16:59.919Z,25.24
2017-08-15T08:18:00.021Z,25.34
2017-08-15T08:18:59.924Z,25.54
2017-08-15T08:19:59.917Z,25.52
2017-08-15T08:20:59.635Z,25.49
2017-08-15T08:21:59.934Z,25.57
2017-08-15T08:22:59.575Z,25.63
2017-08-15T08:23:59.659Z,25.75
2017-08-15T08:24:59.984Z,25.84
2017-08-15T08:26:00.062Z,25.97
2017-08-15T08:26:59.938Z,25.97
2017-08-15T08:28:00.045Z,25.99
2017-08-15T08:29:00.027Z,26.09
2017-08-15T08:30:00.046Z,26.06
2017-08-15T08:31:00.076Z,26.04
2017-08-15T08:31:59.654Z,26.07
2017-08-15T08:32:59.626Z,26
2017-08-15T08:34:00.076Z,26.03
2017-08-15T08:34:59.689Z,26
2017-08-15T08:35:59.685Z,26.06
2017-08-15T08:36:59.668Z,26.04
2017-08-15T08:37:59.365Z,26.06
2017-08-15T08:38:59.947Z,26.03
2017-08-15T08:39:59.985Z,26.07
2017-08-15T08:41:00.025Z,25.93
2017-08-15T08:42:00.027Z,25.74
2017-08-15T08:43:00.020Z,25.57
2017-08-15T08:44:00.118Z,25.52
2017-08-15T08:44:59.698Z,25.39
2017-08-15T08:46:00.095Z,25.41
2017-08-15T08:47:00.034Z,25.39
2017-08-15T08:48:00.112Z,25.24
2017-08-15T08:48:59.701Z,25.15
2017-08-15T08:49:59.981Z,25.04
2017-08-15T08:50:59.994Z,24.96
2017-08-15T08:51:59.665Z,25
2017-08-15T08:52:59.663Z,24.86
2017-08-15T08:53:59.988Z,24.7
2017-08-15T08:54:59.668Z,24.69
2017-08-15T08:55:59.709Z,24.64
2017-08-15T08:57:00.030Z,24.66
2017-08-15T08:58:00.002Z,24.69
2017-08-15T08:59:00.004Z,24.66
2017-08-15T09:00:00.028Z,24.69
2017-08-15T09:00:59.688Z,24.77
2017-08-15T09:01:59.375Z,24.87
2017-08-15T09:02:59.699Z,24.96
2017-08-15T09:03:59.690Z,25
2017-08-15T09:04:59.697Z,25.11
2017-08-15T09:06:00.021Z,25.14
2017-08-15T09:06:59.718Z,25.17
2017-08-15T09:08:00.028Z,25.15
2017-08-15T09:09:00.038Z,25.26
2017-08-15T09:09:59.735Z,25.24
2017-08-15T09:10:59.732Z,25.34
2017-08-15T09:11:59.740Z,25.32
2017-08-15T09:13:00.039Z,25.37
2017-08-15T09:14:00.057Z,25.48
2017-08-15T09:14:59.732Z,25.51
2017-08-15T09:15:59.720Z,25.49
2017-08-15T09:17:00.048Z,25.6
2017-08-15T09:18:00.069Z,25.62
2017-08-15T09:18:59.729Z,25.7
2017-08-15T09:20:00.063Z,25.67
2017-08-15T09:21:00.059Z,25.7
2017-08-15T09:21:59.746Z,25.64
2017-08-15T09:23:00.057Z,25.57
2017-08-15T09:24:00.065Z,25.6
2017-08-15T09:25:00.079Z,25.56
2017-08-15T09:26:00.073Z,25.69
2017-08-15T09:27:00.098Z,25.6
2017-08-15T09:28:00.075Z,25.57
2017-08-15T09:28:59.757Z,25.59
2017-08-15T09:29:59.762Z,25.6
2017-08-15T09:31:00.077Z,25.74
2017-08-15T09:31:59.787Z,25.81
2017-08-15T09:32:59.446Z,25.81
2017-08-15T09:34:00.093Z,25.84
2017-08-15T09:35:00.091Z,25.97
2017-08-15T09:36:00.096Z,26.03
2017-08-15T09:37:00.112Z,26.04
2017-08-15T09:37:59.778Z,26.09
2017-08-15T09:39:00.102Z,26.07
2017-08-15T09:40:00.102Z,26.06
2017-08-15T09:41:00.116Z,26.04
2017-08-15T09:42:00.125Z,26.2
2017-08-15T09:43:00.143Z,26.22
2017-08-15T09:44:00.114Z,26.3
2017-08-15T09:45:00.129Z,26.37
2017-08-15T09:46:00.117Z,26.39
2017-08-15T09:46:59.804Z,26.38
2017-08-15T09:48:00.143Z,26.38
2017-08-15T09:48:59.809Z,26.37
2017-08-15T09:50:00.126Z,26.49
2017-08-15T09:50:59.820Z,26.39
2017-08-15T09:52:00.152Z,26.42
2017-08-15T09:53:00.143Z,26.38
2017-08-15T09:54:00.143Z,26.37
2017-08-15T09:54:59.837Z,26.34
2017-08-15T09:55:59.830Z,26.39
2017-08-15T09:57:00.150Z,26.47
2017-08-15T09:58:00.153Z,26.41
2017-08-15T09:58:59.847Z,26.49
2017-08-15T10:00:00.161Z,26.44
2017-08-15T10:00:59.838Z,26.42
2017-08-15T10:01:59.843Z,26.42
2017-08-15T10:03:00.170Z,26.47
2017-08-15T10:03:59.535Z,26.5
2017-08-15T10:05:00.173Z,26.5
2017-08-15T10:06:00.180Z,26.59
2017-08-15T10:07:00.218Z,26.64
2017-08-15T10:08:00.177Z,26.61
2017-08-15T10:09:00.186Z,26.64
2017-08-15T10:10:00.196Z,26.63
2017-08-15T10:11:00.199Z,26.54
2017-08-15T10:11:59.552Z,26.67
2017-08-15T10:13:00.195Z,26.74
2017-08-15T10:13:59.886Z,26.69
2017-08-15T10:14:59.898Z,26.72
2017-08-15T10:15:59.885Z,26.82
2017-08-15T10:17:00.252Z,26.81
2017-08-15T10:18:00.247Z,26.84
2017-08-15T10:19:00.242Z,26.86
2017-08-15T10:19:59.911Z,26.97
2017-08-15T10:20:59.935Z,27
2017-08-15T10:22:00.265Z,27.13
2017-08-15T10:22:59.911Z,27.11
2017-08-15T10:24:00.231Z,27.28
2017-08-15T10:24:59.912Z,27.19
2017-08-15T10:26:00.243Z,27.31
2017-08-15T10:26:59.927Z,27.27
2017-08-15T10:28:00.246Z,27.27
2017-08-15T10:28:59.942Z,27.36
2017-08-15T10:30:00.261Z,27.42
2017-08-15T10:31:00.266Z,27.41
2017-08-15T10:32:00.294Z,27.31
2017-08-15T10:33:00.265Z,27.36
2017-08-15T10:33:59.645Z,27.33
2017-08-15T10:35:00.287Z,27.48
2017-08-15T10:36:00.272Z,27.43
2017-08-15T10:37:00.277Z,27.49
2017-08-15T10:38:00.277Z,27.48
2017-08-15T10:39:00.314Z,27.51
2017-08-15T10:39:59.972Z,27.48
2017-08-15T10:41:00.302Z,27.3
2017-08-15T10:41:59.990Z,27.16
2017-08-15T10:43:00.316Z,27.08
2017-08-15T10:44:00.303Z,27.05
2017-08-15T10:45:00.303Z,27.05
2017-08-15T10:45:59.990Z,26.94
2017-08-15T10:47:00.012Z,27.11
2017-08-15T10:48:00.314Z,27.08
2017-08-15T10:49:00.031Z,27.15
2017-08-15T10:50:00.004Z,27.11
2017-08-15T10:51:00.006Z,27.15
2017-08-15T10:52:00.345Z,27.26
2017-08-15T10:53:00.333Z,27.28
2017-08-15T10:54:00.356Z,27.31
2017-08-15T10:54:59.699Z,27.46
2017-08-15T10:56:00.341Z,27.45
2017-08-15T10:57:00.370Z,27.49
2017-08-15T10:58:00.356Z,27.51
2017-08-15T10:59:00.034Z,27.52
2017-08-15T11:00:00.364Z,27.53
2017-08-15T11:00:59.718Z,27.52
2017-08-15T11:02:00.053Z,27.46
2017-08-15T11:03:00.384Z,27.45
2017-08-15T11:04:00.401Z,27.43
2017-08-15T11:05:00.383Z,27.43
2017-08-15T11:06:00.399Z,27.52
2017-08-15T11:07:00.401Z,27.37
2017-08-15T11:08:00.078Z,27.48
2017-08-15T11:09:00.395Z,27.46
2017-08-15T11:10:00.405Z,27.45
2017-08-15T11:11:00.399Z,27.49
2017-08-15T11:12:00.406Z,27.43
2017-08-15T11:13:00.083Z,27.49
2017-08-15T11:14:00.430Z,27.59
2017-08-15T11:14:59.771Z,27.51
2017-08-15T11:16:00.112Z,27.49
2017-08-15T11:17:00.119Z,27.42
2017-08-15T11:18:00.111Z,27.51
2017-08-15T11:19:00.434Z,27.46
2017-08-15T11:20:00.113Z,27.43
2017-08-15T11:21:00.442Z,27.27
2017-08-15T11:22:00.469Z,27.28
2017-08-15T11:23:00.458Z,27.31
2017-08-15T11:24:00.140Z,27.28
2017-08-15T11:25:00.452Z,27.27
2017-08-15T11:26:00.456Z,27.28
2017-08-15T11:27:00.139Z,27.37
2017-08-15T11:28:00.153Z,27.3
2017-08-15T11:29:00.478Z,27.34
2017-08-15T11:30:00.475Z,27.36
2017-08-15T11:31:00.490Z,27.45
2017-08-15T11:32:00.487Z,27.42
2017-08-15T11:33:00.503Z,27.41
2017-08-15T11:34:00.503Z,27.49
2017-08-15T11:35:00.509Z,27.48
2017-08-15T11:36:00.529Z,27.43
2017-08-15T11:37:00.518Z,27.48
2017-08-15T11:37:59.861Z,27.45
2017-08-15T11:39:00.506Z,27.31
2017-08-15T11:40:00.516Z,27.36
2017-08-15T11:41:00.540Z,27.31
2017-08-15T11:42:00.195Z,27.31
2017-08-15T11:43:00.246Z,27.36
2017-08-15T11:43:59.885Z,27.31
2017-08-15T11:45:00.213Z,27.28
2017-08-15T11:46:00.536Z,27.26
2017-08-15T11:47:00.542Z,27.28
2017-08-15T11:48:00.233Z,27.27
2017-08-15T11:49:00.238Z,27.37
2017-08-15T11:50:00.230Z,27.34
2017-08-15T11:51:00.555Z,27.31
2017-08-15T11:52:00.559Z,27.45
2017-08-15T11:53:00.584Z,27.42
2017-08-15T11:54:00.628Z,27.43
2017-08-15T11:55:00.266Z,27.46
2017-08-15T11:56:00.575Z,27.45
2017-08-15T11:57:00.590Z,27.34
2017-08-15T11:58:00.582Z,27.38
2017-08-15T11:59:00.264Z,27.31
2017-08-15T12:00:00.289Z,27.28
2017-08-15T12:01:00.278Z,27.41
2017-08-15T12:02:00.608Z,27.41
2017-08-15T12:03:00.602Z,27.37
2017-08-15T12:04:00.613Z,27.24
2017-08-15T12:05:00.613Z,27.27
2017-08-15T12:06:00.326Z,27.28
2017-08-15T12:07:00.618Z,27.27
2017-08-15T12:07:59.997Z,27.26
2017-08-15T12:09:00.319Z,27.24
2017-08-15T12:10:00.512Z,27.3
2017-08-15T12:11:00.633Z,27.31
2017-08-15T12:12:00.315Z,27.34
2017-08-15T12:13:00.324Z,27.27
2017-08-15T12:14:00.331Z,27.36
2017-08-15T12:15:00.685Z,27.36
2017-08-15T12:16:00.681Z,27.36
2017-08-15T12:17:00.337Z,27.34
2017-08-15T12:18:00.364Z,27.41
2017-08-15T12:19:00.343Z,27.31
2017-08-15T12:20:00.675Z,27.26
2017-08-15T12:21:00.669Z,27.3
2017-08-15T12:22:00.675Z,27.24
2017-08-15T12:23:00.682Z,27.13
2017-08-15T12:24:00.687Z,27.13
2017-08-15T12:25:00.701Z,27.11
2017-08-15T12:26:00.377Z,27.12
2017-08-15T12:27:00.406Z,27.11
2017-08-15T12:28:00.711Z,27.15
2017-08-15T12:29:00.710Z,27.12
2017-08-15T12:30:00.393Z,27.06
2017-08-15T12:31:00.420Z,27.06
2017-08-15T12:32:00.091Z,27.12
2017-08-15T12:33:00.413Z,27.11
2017-08-15T12:34:00.739Z,27.15
2017-08-15T12:35:00.734Z,27.16
2017-08-15T12:36:00.748Z,27.09
2017-08-15T12:37:00.437Z,27.08
2017-08-15T12:38:00.098Z,27.12
2017-08-15T12:39:00.420Z,27.09
2017-08-15T12:40:00.111Z,27.19
2017-08-15T12:41:00.769Z,27.27
2017-08-15T12:42:00.453Z,27.28
2017-08-15T12:43:00.761Z,27.36
2017-08-15T12:44:00.777Z,27.34
2017-08-15T12:45:00.448Z,27.38
2017-08-15T12:46:00.480Z,27.31
2017-08-15T12:47:00.459Z,27.3
2017-08-15T12:48:00.810Z,27.26
2017-08-15T12:49:00.477Z,27.33
2017-08-15T12:50:00.790Z,27.3
2017-08-15T12:51:00.492Z,27.3
2017-08-15T12:52:00.489Z,27.24
2017-08-15T12:53:00.501Z,27.04
2017-08-15T12:54:01.942Z,27
2017-08-15T12:55:00.504Z,26.97
2017-08-15T12:56:00.496Z,27.12